Time;durP1;ratioP1;P1;durP2;ratioP2;P2;SDS_P1;SDS_P2;PMS_P1;PMS_P2;Temp;Humidity;BMP_temperature;BMP_pressure;BME280_temperature;BME280_humidity;BME280_pressure;Samples;Min_cycle;Max_cycle;Signal;HPM_P1;HPM_P2
2024/01/19 00:00:33;;;;;;;5.55;2.60;;;-0.40;99.90;;;;;;4880992;29;20041;-75
2024/01/19 00:02:58;;;;;;;5.25;2.25;;;-0.40;99.90;;;;;;4884062;29;20560;-75
2024/01/19 00:05:24;;;;;;;4.72;2.22;;;-0.50;99.90;;;;;;4867429;29;20109;-74
2024/01/19 00:07:50;;;;;;;9.32;2.10;;;-0.50;99.90;;;;;;4857546;29;20052;-75
2024/01/19 00:10:15;;;;;;;3.53;1.98;;;-0.50;99.90;;;;;;4860882;29;20048;-75
2024/01/19 00:12:41;;;;;;;9.18;2.15;;;-0.50;99.90;;;;;;4855371;29;20126;-74
2024/01/19 00:15:07;;;;;;;8.43;2.38;;;-0.40;99.90;;;;;;4887400;29;20044;-75
2024/01/19 00:17:33;;;;;;;10.43;2.88;;;-0.30;99.90;;;;;;4881241;29;20052;-75
2024/01/19 00:19:59;;;;;;;7.97;2.40;;;-0.20;99.90;;;;;;4887273;29;20385;-74
2024/01/19 00:22:24;;;;;;;8.68;2.28;;;-0.20;99.90;;;;;;4862160;29;20088;-75
2024/01/19 00:24:50;;;;;;;7.47;2.22;;;-0.20;99.90;;;;;;4877263;29;20061;-74
2024/01/19 00:27:15;;;;;;;13.57;2.92;;;-0.10;99.90;;;;;;4862710;29;20125;-75
2024/01/19 00:29:41;;;;;;;5.22;2.15;;;-0.10;99.90;;;;;;4853531;29;20501;-75
2024/01/19 00:32:07;;;;;;;6.20;2.70;;;-0.20;99.90;;;;;;4867629;29;20112;-75
2024/01/19 00:34:32;;;;;;;8.38;2.47;;;-0.20;99.90;;;;;;4876236;29;20572;-75
2024/01/19 00:36:58;;;;;;;4.13;2.17;;;-0.20;99.90;;;;;;4853967;29;20738;-75
2024/01/19 00:39:24;;;;;;;5.78;2.80;;;-0.20;99.90;;;;;;4883948;29;20058;-75
2024/01/19 00:41:49;;;;;;;5.00;2.28;;;-0.20;99.90;;;;;;4878626;29;20083;-74
2024/01/19 00:44:15;;;;;;;8.30;2.67;;;-0.20;99.90;;;;;;4850976;29;20033;-75
2024/01/19 00:46:41;;;;;;;5.72;2.63;;;-0.20;99.90;;;;;;4902108;29;20045;-75
2024/01/19 00:49:06;;;;;;;9.23;2.53;;;-0.20;99.90;;;;;;4860513;29;20046;-74
2024/01/19 00:51:32;;;;;;;3.53;1.60;;;-0.20;99.90;;;;;;4870852;29;20041;-75
2024/01/19 00:53:58;;;;;;;6.85;2.35;;;-0.20;99.90;;;;;;4869168;29;20505;-75
2024/01/19 00:56:23;;;;;;;6.43;2.28;;;-0.20;99.90;;;;;;4849482;29;20045;-75
2024/01/19 00:58:49;;;;;;;9.95;2.80;;;-0.10;99.90;;;;;;4863028;29;20049;-75
2024/01/19 01:01:15;;;;;;;9.23;2.63;;;-0.20;99.90;;;;;;4881618;29;20092;-74
2024/01/19 01:03:40;;;;;;;6.25;2.38;;;-0.20;99.90;;;;;;4866691;29;20045;-75
2024/01/19 01:06:06;;;;;;;6.40;2.50;;;-0.30;99.90;;;;;;4860943;29;20049;-75
2024/01/19 01:08:35;;;;;;;10.40;2.50;;;-0.30;99.90;;;;;;4874527;29;20436;-74
2024/01/19 01:11:00;;;;;;;5.35;2.72;;;-0.40;99.90;;;;;;4863388;29;21029;-75
2024/01/19 01:13:26;;;;;;;7.38;2.47;;;-0.40;99.90;;;;;;4883039;29;20071;-75
2024/01/19 01:15:52;;;;;;;6.10;2.67;;;-0.40;99.90;;;;;;4878295;29;20499;-75
2024/01/19 01:18:19;;;;;;;8.27;2.45;;;-0.40;99.90;;;;;;4843964;29;20562;-74
2024/01/19 01:20:45;;;;;;;8.05;2.72;;;-0.40;99.90;;;;;;4862528;29;20049;-75
2024/01/19 01:23:10;;;;;;;10.10;2.70;;;-0.30;99.90;;;;;;4845385;29;20041;-74
2024/01/19 01:25:36;;;;;;;8.40;3.03;;;-0.30;99.90;;;;;;4880358;29;20236;-74
2024/01/19 01:28:02;;;;;;;6.05;2.40;;;-0.30;99.90;;;;;;4894280;29;20053;-75
2024/01/19 01:30:28;;;;;;;6.95;2.70;;;-0.30;99.90;;;;;;4876281;29;20564;-75
2024/01/19 01:32:53;;;;;;;5.38;2.90;;;-0.30;99.90;;;;;;4879380;29;20055;-74
2024/01/19 01:35:19;;;;;;;8.82;2.70;;;-0.30;99.90;;;;;;4861680;29;20533;-75
2024/01/19 01:37:45;;;;;;;6.63;2.50;;;-0.30;99.90;;;;;;4869555;29;20144;-74
2024/01/19 01:40:11;;;;;;;9.23;2.70;;;-0.30;99.90;;;;;;4875860;29;20496;-75
2024/01/19 01:42:37;;;;;;;5.57;2.10;;;-0.30;99.90;;;;;;4877202;29;20136;-75
2024/01/19 01:45:04;;;;;;;10.30;2.38;;;-0.30;99.90;;;;;;4896384;29;20148;-75
2024/01/19 01:47:30;;;;;;;6.40;2.40;;;-0.30;99.90;;;;;;4866064;29;20640;-75
2024/01/19 01:49:56;;;;;;;7.05;2.20;;;-0.30;99.90;;;;;;4878394;29;20679;-75
2024/01/19 01:52:22;;;;;;;9.00;2.10;;;-0.30;99.90;;;;;;4863032;29;20049;-75
2024/01/19 01:54:48;;;;;;;6.18;2.13;;;-0.30;99.90;;;;;;4878094;29;20053;-75
2024/01/19 01:57:14;;;;;;;6.22;2.25;;;-0.40;99.90;;;;;;4864453;29;20041;-74
2024/01/19 01:59:41;;;;;;;8.43;2.45;;;-0.40;99.90;;;;;;4870080;29;20525;-75
2024/01/19 02:02:07;;;;;;;7.15;2.00;;;-0.40;99.90;;;;;;4865258;29;20512;-75
2024/01/19 02:04:34;;;;;;;6.05;2.30;;;-0.40;99.90;;;;;;4870745;29;20100;-74
2024/01/19 02:07:00;;;;;;;7.75;2.53;;;-0.40;99.90;;;;;;4880294;29;20159;-75
2024/01/19 02:09:26;;;;;;;7.20;2.97;;;-0.40;99.90;;;;;;4883918;29;20116;-74
2024/01/19 02:11:53;;;;;;;7.30;2.75;;;-0.40;99.90;;;;;;4879355;29;20057;-74
2024/01/19 02:14:19;;;;;;;9.98;2.90;;;-0.40;99.90;;;;;;4858244;29;20049;-74
2024/01/19 02:16:44;;;;;;;5.50;2.53;;;-0.40;99.90;;;;;;4882171;29;20099;-74
2024/01/19 02:19:10;;;;;;;9.45;3.20;;;-0.40;99.90;;;;;;4879531;29;20593;-75
2024/01/19 02:21:36;;;;;;;5.80;3.00;;;-0.40;99.90;;;;;;4848674;29;20501;-74
2024/01/19 02:24:13;;;;;;;9.00;3.40;;;-0.40;99.90;;;;;;4858943;29;20112;-74
2024/01/19 02:26:38;;;;;;;14.27;3.63;;;-0.40;99.90;;;;;;4870613;29;20544;-75
2024/01/19 02:29:04;;;;;;;9.68;3.63;;;-0.40;99.90;;;;;;4857694;29;20049;-75
2024/01/19 02:31:30;;;;;;;11.10;3.28;;;-0.30;99.90;;;;;;4855105;29;20132;-74
2024/01/19 02:33:56;;;;;;;6.82;3.63;;;-0.30;99.90;;;;;;4867769;29;20044;-74
2024/01/19 02:36:22;;;;;;;10.90;3.50;;;-0.30;99.90;;;;;;4870789;29;20513;-74
2024/01/19 02:38:48;;;;;;;10.38;3.72;;;-0.30;99.90;;;;;;4868834;29;20064;-75
2024/01/19 02:41:14;;;;;;;7.25;3.50;;;-0.30;99.90;;;;;;4863881;29;20146;-74
2024/01/19 02:43:39;;;;;;;8.57;3.63;;;-0.30;99.90;;;;;;4853775;29;20072;-74
2024/01/19 02:46:05;;;;;;;7.90;3.35;;;-0.30;99.90;;;;;;4850980;29;20132;-75
2024/01/19 02:48:32;;;;;;;5.03;3.08;;;-0.30;99.90;;;;;;4862494;29;20073;-75
2024/01/19 02:50:57;;;;;;;9.38;3.28;;;-0.30;99.90;;;;;;4881683;29;20085;-75
2024/01/19 02:53:23;;;;;;;5.43;3.30;;;-0.20;99.90;;;;;;4843318;29;20696;-74
2024/01/19 02:55:49;;;;;;;15.82;3.63;;;-0.20;99.90;;;;;;4840805;29;20042;-74
2024/01/19 02:58:14;;;;;;;6.85;3.20;;;-0.20;99.90;;;;;;4858683;29;20059;-75
2024/01/19 03:00:40;;;;;;;5.72;2.92;;;-0.20;99.90;;;;;;4858676;29;20136;-74
2024/01/19 03:03:05;;;;;;;7.50;2.90;;;-0.20;99.90;;;;;;4867944;29;20387;-75
2024/01/19 03:05:32;;;;;;;6.00;3.05;;;-0.20;99.90;;;;;;4868038;29;20033;-74
2024/01/19 03:07:58;;;;;;;7.70;3.17;;;-0.20;99.90;;;;;;4854016;29;20064;-74
2024/01/19 03:10:24;;;;;;;5.90;3.08;;;-0.20;99.90;;;;;;4841434;29;20049;-74
2024/01/19 03:12:49;;;;;;;6.28;2.80;;;-0.30;99.90;;;;;;4869390;29;20486;-74
2024/01/19 03:15:15;;;;;;;7.60;2.85;;;-0.30;99.90;;;;;;4848741;29;20075;-74
2024/01/19 03:17:40;;;;;;;7.40;2.95;;;-0.40;99.90;;;;;;4877675;29;20101;-75
2024/01/19 03:20:07;;;;;;;8.05;3.13;;;-0.50;99.90;;;;;;4858135;29;20053;-74
2024/01/19 03:22:32;;;;;;;4.60;2.25;;;-0.60;99.90;;;;;;4859508;29;20144;-75
2024/01/19 03:24:58;;;;;;;7.72;2.10;;;-0.60;99.90;;;;;;4876467;29;20140;-74
2024/01/19 03:27:24;;;;;;;4.40;2.40;;;-0.60;99.90;;;;;;4869164;29;20052;-74
2024/01/19 03:29:49;;;;;;;6.40;2.55;;;-0.60;99.90;;;;;;4884879;29;20076;-74
2024/01/19 03:32:15;;;;;;;3.30;1.85;;;-0.50;99.90;;;;;;4858834;29;20053;-74
2024/01/19 03:34:41;;;;;;;8.88;3.05;;;-0.50;99.90;;;;;;4865684;29;20060;-74
2024/01/19 03:37:07;;;;;;;5.05;2.65;;;-0.50;99.90;;;;;;4863651;29;20529;-74
2024/01/19 03:39:33;;;;;;;6.38;2.40;;;-0.50;99.90;;;;;;4856437;29;20056;-74
2024/01/19 03:41:59;;;;;;;4.22;2.30;;;-0.50;99.90;;;;;;4871462;29;20048;-74
2024/01/19 03:44:26;;;;;;;10.15;2.58;;;-0.40;99.90;;;;;;4871651;29;20041;-75
2024/01/19 03:46:52;;;;;;;6.75;3.00;;;-0.40;99.90;;;;;;4865079;29;20128;-74
2024/01/19 03:49:19;;;;;;;6.68;2.55;;;-0.40;99.90;;;;;;4859747;29;20053;-74
2024/01/19 03:52:05;;;;;;;5.57;2.83;;;-0.50;99.90;;;;;;4866000;29;20051;-75
2024/01/19 03:54:32;;;;;;;5.57;2.97;;;-0.40;99.90;;;;;;4878283;29;20551;-75
2024/01/19 03:57:00;;;;;;;7.80;3.42;;;-0.40;99.90;;;;;;4867445;29;20056;-74
2024/01/19 03:59:26;;;;;;;8.77;2.60;;;-0.40;99.90;;;;;;4851546;29;20053;-75
2024/01/19 04:01:53;;;;;;;8.53;2.43;;;-0.40;99.90;;;;;;4876302;29;20045;-74
2024/01/19 04:04:19;;;;;;;5.55;2.47;;;-0.40;99.90;;;;;;4881997;29;20864;-75
2024/01/19 04:06:44;;;;;;;6.97;1.83;;;-0.40;99.90;;;;;;4839195;29;20045;-75
2024/01/19 04:09:10;;;;;;;7.05;2.05;;;-0.40;99.90;;;;;;4853235;29;20051;-74
2024/01/19 04:11:36;;;;;;;8.93;2.22;;;-0.40;99.90;;;;;;4876710;29;20052;-74
2024/01/19 04:14:02;;;;;;;6.53;2.05;;;-0.40;99.90;;;;;;4867168;29;20045;-75
2024/01/19 04:16:28;;;;;;;7.75;2.28;;;-0.40;99.90;;;;;;4876031;29;20156;-75
2024/01/19 04:18:53;;;;;;;7.10;1.80;;;-0.30;99.90;;;;;;4869645;29;20143;-75
2024/01/19 04:21:19;;;;;;;6.47;2.03;;;-0.30;99.90;;;;;;4855605;29;20077;-74
2024/01/19 04:23:45;;;;;;;6.32;1.80;;;-0.30;99.90;;;;;;4887439;29;20067;-75
2024/01/19 04:26:11;;;;;;;5.22;2.10;;;-0.20;99.90;;;;;;4844684;29;20060;-75
2024/01/19 04:28:37;;;;;;;4.10;1.40;;;-0.20;99.90;;;;;;4877424;29;20183;-75
2024/01/19 04:31:02;;;;;;;6.43;2.20;;;-0.20;99.90;;;;;;4862849;29;20906;-75
2024/01/19 04:33:28;;;;;;;6.40;1.63;;;-0.20;99.90;;;;;;4865077;29;20442;-74
2024/01/19 04:35:53;;;;;;;4.88;1.60;;;-0.10;99.90;;;;;;4859434;29;20041;-74
2024/01/19 04:38:19;;;;;;;4.82;2.00;;;-0.10;99.90;;;;;;4855759;29;20089;-74
2024/01/19 04:40:45;;;;;;;8.35;2.05;;;-0.10;99.90;;;;;;4843669;29;20139;-74
2024/01/19 04:43:10;;;;;;;3.90;1.83;;;-0.10;99.90;;;;;;4847068;29;20544;-74
2024/01/19 04:45:36;;;;;;;6.00;1.98;;;-0.20;99.90;;;;;;4859043;29;20044;-75
2024/01/19 04:48:02;;;;;;;5.22;1.63;;;-0.20;99.90;;;;;;4887663;29;20041;-74
2024/01/19 04:50:28;;;;;;;4.57;2.25;;;-0.20;99.90;;;;;;4864981;29;20060;-75
2024/01/19 04:52:53;;;;;;;6.13;2.33;;;-0.20;99.90;;;;;;4878888;29;20056;-74
2024/01/19 04:55:19;;;;;;;9.07;2.13;;;-0.20;99.90;;;;;;4862743;29;20127;-74
2024/01/19 04:57:45;;;;;;;7.28;2.50;;;-0.20;99.90;;;;;;4877750;29;20044;-75
2024/01/19 05:00:12;;;;;;;5.03;1.98;;;-0.20;99.90;;;;;;4889709;29;20056;-74
2024/01/19 05:02:38;;;;;;;11.18;2.30;;;-0.20;99.90;;;;;;4880649;29;20109;-75
2024/01/19 05:05:04;;;;;;;9.52;2.47;;;-0.20;99.90;;;;;;4870567;29;20045;-74
2024/01/19 05:07:29;;;;;;;8.95;2.50;;;-0.10;99.90;;;;;;4854984;29;20044;-75
2024/01/19 05:09:56;;;;;;;7.25;2.50;;;-0.20;99.90;;;;;;4871677;29;20055;-75
2024/01/19 05:12:21;;;;;;;9.90;2.30;;;-0.20;99.90;;;;;;4864236;29;20045;-75
2024/01/19 05:14:47;;;;;;;3.75;1.80;;;-0.20;99.90;;;;;;4873439;29;20051;-74
2024/01/19 05:17:13;;;;;;;3.90;2.08;;;-0.20;99.90;;;;;;4862639;29;20109;-75
2024/01/19 05:19:39;;;;;;;9.07;2.20;;;-0.20;99.90;;;;;;4868131;29;20049;-74
2024/01/19 05:22:04;;;;;;;6.45;2.30;;;-0.20;99.90;;;;;;4902668;29;20040;-74
2024/01/19 05:24:30;;;;;;;7.13;2.67;;;-0.10;99.90;;;;;;4855989;29;20046;-75
2024/01/19 05:26:55;;;;;;;7.07;3.67;;;-0.20;99.90;;;;;;4866811;29;20064;-74
2024/01/19 05:29:22;;;;;;;7.40;2.60;;;-0.10;99.90;;;;;;4890750;29;20068;-74
2024/01/19 05:31:48;;;;;;;5.38;3.13;;;-0.10;99.90;;;;;;4874391;29;20052;-75
2024/01/19 05:34:14;;;;;;;5.78;3.08;;;-0.10;99.90;;;;;;4876496;29;20044;-74
2024/01/19 05:36:40;;;;;;;6.88;3.28;;;-0.10;99.90;;;;;;4866769;29;20049;-74
2024/01/19 05:39:07;;;;;;;6.72;3.28;;;-0.10;99.90;;;;;;4873127;29;20060;-74
2024/01/19 05:41:33;;;;;;;7.03;3.38;;;0.00;99.90;;;;;;4859474;29;20055;-74
2024/01/19 05:43:59;;;;;;;9.38;3.25;;;0.00;99.90;;;;;;4860788;29;20137;-75
2024/01/19 05:46:25;;;;;;;5.43;3.30;;;0.00;99.90;;;;;;4850063;29;20132;-74
2024/01/19 05:48:51;;;;;;;5.53;2.75;;;0.00;99.90;;;;;;4871092;29;20565;-74
2024/01/19 05:51:16;;;;;;;6.90;2.67;;;0.00;99.90;;;;;;4859839;29;20521;-74
2024/01/19 05:53:42;;;;;;;9.65;3.58;;;0.00;99.90;;;;;;4872203;29;20868;-75
2024/01/19 05:56:08;;;;;;;6.43;3.28;;;0.00;99.90;;;;;;4874304;29;20057;-74
2024/01/19 05:58:34;;;;;;;12.45;4.22;;;0.00;99.90;;;;;;4856306;29;20217;-75
2024/01/19 06:01:02;;;;;;;11.07;4.22;;;0.00;99.90;;;;;;4879330;29;20053;-74
2024/01/19 06:03:37;;;;;;;6.50;3.97;;;0.00;99.90;;;;;;4862151;29;20052;-75
2024/01/19 06:06:03;;;;;;;9.10;3.78;;;0.00;99.90;;;;;;4853750;29;20537;-74
2024/01/19 06:08:30;;;;;;;5.63;3.67;;;-0.10;99.90;;;;;;4885232;29;20048;-74
2024/01/19 06:10:55;;;;;;;7.72;3.50;;;-0.10;99.90;;;;;;4862661;29;20133;-74
2024/01/19 06:13:21;;;;;;;7.30;4.43;;;-0.10;99.90;;;;;;4862436;29;20136;-74
2024/01/19 06:15:47;;;;;;;10.18;3.90;;;-0.20;99.90;;;;;;4866495;29;20067;-74
2024/01/19 06:18:12;;;;;;;7.30;3.33;;;-0.20;99.90;;;;;;4883284;29;20044;-74
2024/01/19 06:20:41;;;;;;;10.68;4.43;;;-0.20;99.90;;;;;;4875437;29;20529;-74
2024/01/19 06:23:08;;;;;;;5.40;3.30;;;-0.30;99.90;;;;;;4880588;29;20048;-74
2024/01/19 06:25:34;;;;;;;11.85;4.07;;;-0.30;99.90;;;;;;4846717;29;20045;-74
2024/01/19 06:28:00;;;;;;;6.95;4.30;;;-0.30;99.90;;;;;;4861089;29;20061;-74
2024/01/19 06:30:26;;;;;;;8.60;5.40;;;-0.40;99.90;;;;;;4878680;29;20049;-75
2024/01/19 06:32:51;;;;;;;9.52;5.53;;;-0.40;99.90;;;;;;4857418;29;20045;-74
2024/01/19 06:35:17;;;;;;;8.15;6.05;;;-0.50;99.90;;;;;;4860640;29;20642;-75
2024/01/19 06:37:42;;;;;;;14.80;6.00;;;-0.50;99.90;;;;;;4870911;29;20193;-74
2024/01/19 06:40:10;;;;;;;7.60;5.03;;;-0.50;99.90;;;;;;4873667;29;20052;-74
2024/01/19 06:42:39;;;;;;;9.10;5.32;;;-0.50;99.90;;;;;;4867312;29;20046;-74
2024/01/19 06:45:05;;;;;;;14.32;7.43;;;-0.50;99.90;;;;;;4862531;29;20037;-74
2024/01/19 06:47:31;;;;;;;8.90;5.65;;;-0.50;99.90;;;;;;4879502;29;20057;-74
2024/01/19 06:49:57;;;;;;;10.38;5.50;;;-0.50;99.90;;;;;;4856732;29;20057;-73
2024/01/19 06:52:23;;;;;;;7.28;5.00;;;-0.60;99.90;;;;;;4868772;29;20049;-74
2024/01/19 06:54:49;;;;;;;6.60;3.95;;;-0.60;99.90;;;;;;4874287;29;20067;-74
2024/01/19 06:57:14;;;;;;;9.25;4.32;;;-0.60;99.90;;;;;;4858632;29;20526;-74
2024/01/19 06:59:40;;;;;;;5.93;3.63;;;-0.60;99.90;;;;;;4873006;29;20156;-74
2024/01/19 07:02:06;;;;;;;6.68;3.63;;;-0.60;99.90;;;;;;4864748;29;20045;-73
2024/01/19 07:04:32;;;;;;;6.78;3.58;;;-0.70;99.90;;;;;;4872951;29;20045;-74
2024/01/19 07:06:58;;;;;;;9.15;3.20;;;-0.70;99.90;;;;;;4869892;29;20049;-74
2024/01/19 07:09:26;;;;;;;5.35;2.70;;;-0.70;99.90;;;;;;4864984;29;20045;-74
2024/01/19 07:11:52;;;;;;;6.13;2.70;;;-0.70;99.90;;;;;;4870043;29;20060;-74
2024/01/19 07:14:18;;;;;;;7.07;2.65;;;-0.70;99.90;;;;;;4873486;29;20073;-74
2024/01/19 07:16:43;;;;;;;4.97;1.80;;;-0.70;99.90;;;;;;4873999;29;20549;-74
2024/01/19 07:19:10;;;;;;;4.00;1.67;;;-0.70;99.90;;;;;;4854936;29;20102;-74
2024/01/19 07:21:37;;;;;;;6.15;2.08;;;-0.70;99.90;;;;;;4874366;29;20041;-74
2024/01/19 07:24:04;;;;;;;2.97;1.52;;;-0.60;99.90;;;;;;4858076;29;20057;-74
2024/01/19 07:26:30;;;;;;;6.03;1.60;;;-0.60;99.90;;;;;;4863588;29;20464;-74
2024/01/19 07:28:56;;;;;;;5.30;1.88;;;-0.60;99.90;;;;;;4854666;29;20133;-74
2024/01/19 07:31:21;;;;;;;2.60;1.45;;;-0.50;99.90;;;;;;4853916;29;20049;-74
2024/01/19 07:33:47;;;;;;;4.68;1.60;;;-0.50;99.90;;;;;;4853284;29;20090;-73
2024/01/19 07:36:15;;;;;;;7.72;1.70;;;-0.40;99.90;;;;;;4860519;29;20053;-74
2024/01/19 07:38:41;;;;;;;5.50;2.10;;;-0.40;99.90;;;;;;4872175;29;20116;-74
2024/01/19 07:41:07;;;;;;;3.22;1.30;;;-0.50;99.90;;;;;;4870727;29;20650;-74
2024/01/19 07:43:32;;;;;;;3.67;1.55;;;-0.40;99.90;;;;;;4865198;29;20057;-73
2024/01/19 07:45:58;;;;;;;2.35;1.17;;;-0.50;99.90;;;;;;4856757;29;20045;-74
2024/01/19 07:48:26;;;;;;;4.10;1.20;;;-0.50;99.90;;;;;;4870606;29;20037;-75
2024/01/19 07:50:52;;;;;;;4.30;1.25;;;-0.60;99.90;;;;;;4868143;29;20109;-74
2024/01/19 07:53:17;;;;;;;5.35;1.50;;;-0.60;99.90;;;;;;4857809;29;20048;-74
2024/01/19 07:55:43;;;;;;;7.97;1.70;;;-0.60;99.90;;;;;;4873328;29;20053;-74
2024/01/19 07:58:09;;;;;;;7.70;1.65;;;-0.60;99.90;;;;;;4864928;29;20112;-75
2024/01/19 08:00:34;;;;;;;6.55;1.35;;;-0.60;99.90;;;;;;4863127;29;20116;-76
2024/01/19 08:03:00;;;;;;;3.45;1.17;;;-0.70;99.90;;;;;;4861448;29;20049;-75
2024/01/19 08:05:26;;;;;;;4.65;1.40;;;-0.60;99.90;;;;;;4847836;29;20451;-76
2024/01/19 08:07:52;;;;;;;4.28;1.42;;;-0.70;99.90;;;;;;4865164;29;20041;-75
2024/01/19 08:10:19;;;;;;;3.47;1.13;;;-0.70;99.90;;;;;;4865363;29;20088;-76
2024/01/19 08:12:45;;;;;;;4.22;1.17;;;-0.70;99.90;;;;;;4845355;29;20501;-78
2024/01/19 08:15:10;;;;;;;5.47;1.60;;;-0.60;99.90;;;;;;4872691;29;20076;-76
2024/01/19 08:17:36;;;;;;;4.85;2.00;;;-0.60;99.90;;;;;;4854139;29;20051;-86
2024/01/19 08:20:02;;;;;;;4.07;1.30;;;-0.70;99.90;;;;;;4845430;29;20120;-86
2024/01/19 08:22:28;;;;;;;4.72;1.10;;;-0.60;99.90;;;;;;4850387;29;20052;-79
2024/01/19 08:24:54;;;;;;;7.32;1.20;;;-0.60;99.90;;;;;;4857607;29;20057;-80
2024/01/19 08:27:19;;;;;;;4.28;1.25;;;-0.60;99.90;;;;;;4863320;29;20089;-80
2024/01/19 08:29:48;;;;;;;6.05;1.60;;;-0.60;99.90;;;;;;4884631;29;20060;-81
2024/01/19 08:32:13;;;;;;;5.15;1.40;;;-0.60;99.90;;;;;;4857195;29;20050;-81
2024/01/19 08:34:41;;;;;;;5.57;1.48;;;-0.50;99.90;;;;;;4867141;29;20569;-81
2024/01/19 08:37:07;;;;;;;5.35;1.52;;;-0.50;99.90;;;;;;4863520;29;20056;-82
2024/01/19 08:39:34;;;;;;;4.82;1.50;;;-0.50;99.90;;;;;;4861880;29;20122;-81
2024/01/19 08:42:00;;;;;;;7.22;1.40;;;-0.50;99.90;;;;;;4861032;29;20049;-76
2024/01/19 08:44:26;;;;;;;5.13;1.20;;;-0.40;99.90;;;;;;4860544;29;20037;-77
2024/01/19 08:46:51;;;;;;;5.38;1.60;;;-0.30;99.90;;;;;;4878596;29;20053;-80
2024/01/19 08:49:17;;;;;;;5.05;1.00;;;-0.30;99.90;;;;;;4869212;29;20413;-78
2024/01/19 08:51:43;;;;;;;5.75;1.13;;;-0.20;99.90;;;;;;4875872;29;20057;-77
2024/01/19 08:54:10;;;;;;;3.15;1.13;;;-0.20;99.90;;;;;;4877183;29;20045;-72
2024/01/19 08:56:36;;;;;;;5.78;1.42;;;-0.10;99.90;;;;;;4859443;29;20113;-75
2024/01/19 08:59:01;;;;;;;4.50;1.40;;;0.00;99.90;;;;;;4861454;29;20037;-75
2024/01/19 09:01:27;;;;;;;6.30;1.65;;;0.10;99.90;;;;;;4848786;29;20097;-77
2024/01/19 09:03:52;;;;;;;2.35;1.65;;;0.10;99.90;;;;;;4880564;29;20053;-76
2024/01/19 09:06:18;;;;;;;7.35;2.03;;;0.20;99.90;;;;;;4890489;29;20047;-77
2024/01/19 09:08:44;;;;;;;5.38;1.92;;;0.20;99.90;;;;;;4878896;29;20426;-78
2024/01/19 09:11:11;;;;;;;7.07;2.50;;;0.20;99.90;;;;;;4873156;29;20042;-77
2024/01/19 09:13:39;;;;;;;6.63;2.40;;;0.30;99.90;;;;;;4868642;29;20054;-76
2024/01/19 09:16:09;;;;;;;6.85;2.50;;;0.30;99.90;;;;;;4863278;29;20560;-80
2024/01/19 09:18:36;;;;;;;5.05;2.03;;;0.30;99.90;;;;;;4882938;29;20142;-77
2024/01/19 09:21:03;;;;;;;6.13;2.15;;;0.30;99.90;;;;;;4878910;29;20041;-74
2024/01/19 09:23:28;;;;;;;5.32;1.80;;;0.30;99.90;;;;;;4862072;29;20045;-75
2024/01/19 09:25:54;;;;;;;4.32;1.90;;;0.40;99.90;;;;;;4862297;29;20140;-76
2024/01/19 09:28:20;;;;;;;7.20;2.42;;;0.40;99.90;;;;;;4877813;29;20452;-77
2024/01/19 09:30:47;;;;;;;4.15;2.00;;;0.40;99.90;;;;;;4870922;29;20053;-76
2024/01/19 09:33:14;;;;;;;7.82;2.20;;;0.50;99.90;;;;;;4865641;29;20051;-77
2024/01/19 09:35:40;;;;;;;5.72;1.95;;;0.50;99.90;;;;;;4871353;29;20053;-76
2024/01/19 09:38:06;;;;;;;8.23;2.45;;;0.50;99.90;;;;;;4878176;29;20053;-81
2024/01/19 09:40:32;;;;;;;4.32;2.30;;;0.50;99.90;;;;;;4879978;29;20041;-79
2024/01/19 09:42:58;;;;;;;5.88;2.13;;;0.50;99.90;;;;;;4859575;29;20053;-76
2024/01/19 09:45:27;;;;;;;3.75;2.47;;;0.60;99.90;;;;;;4871097;29;20041;-75
2024/01/19 09:48:08;;;;;;;7.57;2.85;;;0.60;99.90;;;;;;4869873;29;20175;-75
2024/01/19 09:50:35;;;;;;;4.50;2.15;;;0.70;99.90;;;;;;4870969;29;20063;-76
2024/01/19 09:53:25;;;;;;;7.28;2.83;;;0.70;99.90;;;;;;4872773;29;20049;-76
2024/01/19 09:55:51;;;;;;;4.30;2.08;;;0.70;99.90;;;;;;4847780;29;20065;-77
2024/01/19 09:58:20;;;;;;;5.18;2.55;;;0.70;99.90;;;;;;4871951;29;20113;-72
2024/01/19 10:00:48;;;;;;;5.82;2.25;;;0.80;99.90;;;;;;4865400;29;20049;-76
2024/01/19 10:03:16;;;;;;;7.00;2.35;;;0.80;99.90;;;;;;4858917;29;20072;-75
2024/01/19 10:05:48;;;;;;;4.95;2.35;;;0.80;99.90;;;;;;4849767;29;20482;-75
2024/01/19 10:08:14;;;;;;;6.85;2.15;;;0.80;99.90;;;;;;4856782;29;20048;-75
2024/01/19 10:10:44;;;;;;;6.90;2.40;;;0.90;99.90;;;;;;4869361;29;20124;-76
2024/01/19 10:13:10;;;;;;;4.47;2.22;;;0.90;99.90;;;;;;4873486;29;20049;-75
2024/01/19 10:15:36;;;;;;;7.78;2.47;;;1.00;99.90;;;;;;4873687;29;20055;-77
2024/01/19 10:18:05;;;;;;;8.32;3.63;;;1.00;99.90;;;;;;4882350;29;20053;-79
2024/01/19 10:20:31;;;;;;;6.53;2.72;;;1.00;99.90;;;;;;4856125;29;20128;-78
2024/01/19 10:23:18;;;;;;;8.10;3.17;;;1.00;99.90;;;;;;4872564;29;20559;-78
2024/01/19 10:25:44;;;;;;;7.95;3.25;;;1.00;99.90;;;;;;4872294;29;20037;-76
2024/01/19 10:28:11;;;;;;;7.32;2.50;;;1.10;99.90;;;;;;4875506;29;20108;-76
2024/01/19 10:30:37;;;;;;;5.97;3.05;;;1.10;99.90;;;;;;4870929;29;20486;-77
2024/01/19 10:33:05;;;;;;;6.88;2.70;;;1.10;99.90;;;;;;4880778;29;20067;-79
2024/01/19 10:35:30;;;;;;;;;;;1.20;99.90;;;;;;4853014;29;20051;-76
2024/01/19 10:38:07;;;;;;;6.43;2.35;;;1.20;99.90;;;;;;4876226;29;20014;-75
2024/01/19 10:40:34;;;;;;;5.43;2.77;;;1.20;99.90;;;;;;4864673;29;20050;-72
2024/01/19 10:42:59;;;;;;;6.00;2.88;;;1.30;99.90;;;;;;4886874;29;20301;-74
2024/01/19 10:45:34;;;;;;;10.27;3.45;;;1.30;99.90;;;;;;4866372;29;20113;-76
2024/01/19 10:48:03;;;;;;;10.77;2.85;;;1.40;99.90;;;;;;4870732;29;20080;-76
2024/01/19 10:50:29;;;;;;;10.15;2.78;;;1.50;99.90;;;;;;4857122;29;20486;-78
2024/01/19 10:52:57;;;;;;;8.13;2.88;;;1.50;99.90;;;;;;4865739;29;20049;-78
2024/01/19 10:55:28;;;;;;;12.80;3.38;;;1.60;99.90;;;;;;4857721;29;20057;-81
2024/01/19 10:58:03;;;;;;;7.78;3.28;;;1.70;99.90;;;;;;4861915;29;20046;-84
2024/01/19 11:00:29;;;;;;;5.95;2.78;;;1.80;99.90;;;;;;4851545;29;20409;-83
2024/01/19 11:02:56;;;;;;;8.02;3.25;;;1.80;99.90;;;;;;4878826;29;20040;-78
2024/01/19 11:05:23;;;;;;;12.45;3.30;;;1.80;99.90;;;;;;4860983;29;20781;-80
2024/01/19 11:07:57;;;;;;;7.60;2.85;;;1.90;99.90;;;;;;4867996;29;20088;-79
2024/01/19 11:10:25;;;;;;;13.95;3.42;;;1.90;99.90;;;;;;4884833;29;20501;-88
2024/01/19 11:13:13;;;;;;;9.05;3.38;;;2.00;99.90;;;;;;4847425;29;20052;-82
2024/01/19 11:15:40;;;;;;;5.05;2.97;;;2.00;99.90;;;;;;4840575;29;20080;-81
2024/01/19 11:18:07;;;;;;;6.05;3.03;;;2.00;99.90;;;;;;4846430;29;20055;-84
2024/01/19 11:20:33;;;;;;;9.15;3.22;;;2.10;99.90;;;;;;4861026;29;20045;-90
2024/01/19 11:23:00;;;;;;;4.32;2.60;;;2.10;99.90;;;;;;4877836;29;20113;-84
2024/01/19 11:25:38;;;;;;;10.40;2.80;;;2.10;99.90;;;;;;4841203;29;20049;-79
2024/01/19 11:28:42;;;;;;;9.68;3.38;;;2.10;99.90;;;;;;4868402;29;20166;-76
2024/01/19 11:31:30;;;;;;;7.90;2.90;;;2.10;99.90;;;;;;4855508;29;20061;-80
2024/01/19 11:33:57;;;;;;;10.85;2.67;;;2.10;99.90;;;;;;4861460;29;20049;-80
2024/01/19 11:36:41;;;;;;;9.82;3.15;;;2.10;99.90;;;;;;4848144;29;20077;-75
2024/01/19 11:39:13;;;;;;;12.20;2.80;;;2.20;99.90;;;;;;4871325;29;20061;-80
2024/01/19 11:41:40;;;;;;;5.15;2.45;;;2.20;99.90;;;;;;4853149;29;20092;-78
2024/01/19 11:44:12;;;;;;;11.37;3.00;;;2.30;99.90;;;;;;4844005;29;20568;-78
2024/01/19 11:46:50;;;;;;;10.15;2.63;;;2.40;99.90;;;;;;4871462;29;20413;-77
2024/01/19 11:49:35;;;;;;;13.75;2.70;;;2.40;99.90;;;;;;4870228;29;20060;-80
2024/01/19 11:52:03;;;;;;;10.00;3.03;;;2.60;99.90;;;;;;4853331;29;20059;-78
2024/01/19 11:54:32;;;;;;;4.72;2.10;;;2.60;99.90;;;;;;4849769;29;20045;-77
2024/01/19 11:57:28;;;;;;;5.72;2.30;;;2.60;99.90;;;;;;4870977;29;20123;-77
2024/01/19 11:59:54;;;;;;;6.75;1.92;;;2.70;99.90;;;;;;4860694;29;20054;-77
2024/01/19 12:02:21;;;;;;;4.82;2.33;;;2.70;99.90;;;;;;4862067;29;20053;-78
2024/01/19 12:04:50;;;;;;;6.88;1.83;;;2.80;99.90;;;;;;4851074;29;20049;-78
2024/01/19 12:07:19;;;;;;;10.20;2.17;;;2.80;99.90;;;;;;4847575;29;20057;-78
2024/01/19 12:10:02;;;;;;;7.50;2.42;;;2.80;99.90;;;;;;4872635;29;20390;-78
2024/01/19 12:12:27;;;;;;;9.63;2.28;;;2.90;99.90;;;;;;4853040;29;20308;-77
2024/01/19 12:14:53;;;;;;;8.45;2.10;;;2.90;99.90;;;;;;4848530;29;20119;-77
2024/01/19 12:17:19;;;;;;;8.98;2.00;;;2.90;99.90;;;;;;4854418;29;20045;-78
2024/01/19 12:19:45;;;;;;;5.15;1.95;;;3.00;99.90;;;;;;4850412;29;20705;-77
2024/01/19 12:22:13;;;;;;;5.20;2.00;;;3.00;99.90;;;;;;4867959;29;20044;-77
2024/01/19 12:24:38;;;;;;;5.20;1.85;;;3.10;99.90;;;;;;4865103;29;20056;-78
2024/01/19 12:27:04;;;;;;;10.50;1.92;;;3.10;99.90;;;;;;4850958;29;20559;-79
2024/01/19 12:29:36;;;;;;;7.70;2.10;;;3.20;99.90;;;;;;4867333;29;20068;-80
2024/01/19 12:32:18;;;;;;;6.18;1.90;;;3.30;99.90;;;;;;4849183;29;20108;-80
2024/01/19 12:34:57;;;;;;;7.47;2.10;;;3.30;99.90;;;;;;4864874;29;20201;-80
2024/01/19 12:37:23;;;;;;;13.13;2.78;;;3.30;99.90;;;;;;4851694;29;20063;-80
2024/01/19 12:39:48;;;;;;;7.32;2.10;;;3.30;99.90;;;;;;4854063;29;20442;-79
2024/01/19 12:42:14;;;;;;;10.35;2.13;;;3.40;99.90;;;;;;4848793;29;20049;-81
2024/01/19 12:44:40;;;;;;;7.85;1.70;;;3.40;99.90;;;;;;4858813;29;20569;-77
2024/01/19 12:47:05;;;;;;;11.07;2.05;;;3.40;99.90;;;;;;4879651;29;20055;-83